Time;durP1;ratioP1;P1;durP2;ratioP2;P2;SDS_P1;SDS_P2;PMS_P1;PMS_P2;Temp;Humidity;BMP_temperature;BMP_pressure;BME280_temperature;BME280_humidity;BME280_pressure;Samples;Min_cycle;Max_cycle;Signal;HPM_P1;HPM_P2
2022/06/13 00:00:00;;;;;;;7.57;5.00;;;;;;;;;;2082014;28;20661;-57
2022/06/13 00:01:00;;;;;;;9.93;5.60;;;;;;;;;;2081895;28;20254;-58
2022/06/13 00:02:02;;;;;;;7.47;5.65;;;;;;;;;;2082320;28;20725;-57
2022/06/13 00:03:02;;;;;;;10.25;5.40;;;;;;;;;;2081653;28;20202;-58
2022/06/13 00:04:04;;;;;;;8.63;4.80;;;;;;;;;;2082845;28;20243;-55
2022/06/13 00:05:05;;;;;;;7.50;4.85;;;;;;;;;;2084660;28;20165;-57
2022/06/13 00:06:06;;;;;;;8.50;4.68;;;;;;;;;;2084605;28;20196;-57
2022/06/13 00:07:06;;;;;;;6.45;4.85;;;;;;;;;;2083876;28;20712;-58
2022/06/13 00:08:07;;;;;;;8.10;5.22;;;;;;;;;;2083830;28;20183;-57
2022/06/13 00:09:07;;;;;;;8.32;5.03;;;;;;;;;;2083439;28;20208;-59
2022/06/13 00:10:08;;;;;;;7.80;5.18;;;;;;;;;;2084156;28;20176;-58
2022/06/13 00:11:11;;;;;;;6.50;3.97;;;;;;;;;;2083751;28;20168;-56
2022/06/13 00:12:11;;;;;;;12.18;4.80;;;;;;;;;;2083925;28;20536;-57
2022/06/13 00:13:11;;;;;;;7.60;5.22;;;;;;;;;;2084187;28;20262;-56
2022/06/13 00:14:12;;;;;;;9.52;5.13;;;;;;;;;;2083601;28;20173;-57
2022/06/13 00:15:13;;;;;;;5.40;4.70;;;;;;;;;;2084167;28;20172;-56
2022/06/13 00:16:14;;;;;;;8.82;4.93;;;;;;;;;;2084208;28;20243;-58
2022/06/13 00:17:15;;;;;;;8.40;4.72;;;;;;;;;;2075091;28;20566;-57
2022/06/13 00:18:15;;;;;;;7.22;5.10;;;;;;;;;;2084357;28;20172;-59
2022/06/13 00:19:15;;;;;;;9.73;5.13;;;;;;;;;;2084514;28;20214;-58
2022/06/13 00:20:16;;;;;;;6.45;5.35;;;;;;;;;;2084828;28;20184;-58
2022/06/13 00:21:18;;;;;;;10.65;5.80;;;;;;;;;;2084068;28;20168;-56
2022/06/13 00:22:18;;;;;;;7.85;4.80;;;;;;;;;;2083168;28;20227;-57
2022/06/13 00:23:19;;;;;;;7.72;5.15;;;;;;;;;;2083922;28;20247;-57
2022/06/13 00:24:19;;;;;;;8.15;5.03;;;;;;;;;;2082981;28;20695;-58
2022/06/13 00:25:19;;;;;;;8.07;4.80;;;;;;;;;;2083535;28;20196;-56
2022/06/13 00:26:21;;;;;;;7.68;5.00;;;;;;;;;;2083338;28;20168;-59
2022/06/13 00:27:22;;;;;;;7.38;5.65;;;;;;;;;;2083247;28;20204;-58
2022/06/13 00:28:22;;;;;;;10.80;5.10;;;;;;;;;;2075401;28;20662;-56
2022/06/13 00:29:22;;;;;;;7.72;5.50;;;;;;;;;;2075918;28;20173;-57
2022/06/13 00:30:24;;;;;;;7.30;5.05;;;;;;;;;;2091943;28;20214;-57
2022/06/13 00:31:24;;;;;;;6.18;4.90;;;;;;;;;;2084457;28;20164;-57
2022/06/13 00:32:24;;;;;;;7.28;4.93;;;;;;;;;;2083686;28;20665;-59
2022/06/13 00:33:24;;;;;;;11.30;4.90;;;;;;;;;;2084826;28;20242;-57
2022/06/13 00:34:25;;;;;;;10.45;4.90;;;;;;;;;;2083907;28;20736;-56
2022/06/13 00:35:25;;;;;;;11.80;5.63;;;;;;;;;;2084676;28;20172;-57
2022/06/13 00:36:26;;;;;;;10.43;4.82;;;;;;;;;;2084877;28;20171;-56
2022/06/13 00:37:26;;;;;;;8.88;5.25;;;;;;;;;;2083048;28;20562;-54
2022/06/13 00:38:26;;;;;;;7.10;4.72;;;;;;;;;;2082354;28;20687;-53
2022/06/13 00:39:26;;;;;;;8.77;5.65;;;;;;;;;;2082030;28;20203;-56
2022/06/13 00:40:29;;;;;;;10.00;5.22;;;;;;;;;;2082748;28;20164;-54
2022/06/13 00:41:32;;;;;;;10.45;4.75;;;;;;;;;;2083023;28;20623;-53
2022/06/13 00:42:32;;;;;;;9.95;5.15;;;;;;;;;;2081840;28;20187;-52
2022/06/13 00:43:33;;;;;;;9.30;5.32;;;;;;;;;;2082336;28;20190;-53
2022/06/13 00:44:36;;;;;;;8.50;4.68;;;;;;;;;;2081208;28;20628;-52
2022/06/13 00:45:36;;;;;;;7.13;5.45;;;;;;;;;;2079441;28;20176;-54
2022/06/13 00:46:36;;;;;;;10.10;5.50;;;;;;;;;;2083068;28;20203;-54
2022/06/13 00:47:38;;;;;;;11.57;5.38;;;;;;;;;;2066630;28;20320;-55
2022/06/13 00:48:39;;;;;;;8.35;5.25;;;;;;;;;;2076040;28;20157;-55
2022/06/13 00:49:41;;;;;;;8.02;4.68;;;;;;;;;;2083915;28;20204;-56
2022/06/13 00:50:46;;;;;;;7.40;4.97;;;;;;;;;;2083026;28;20168;-53
2022/06/13 00:51:48;;;;;;;8.57;5.22;;;;;;;;;;2080798;28;20204;-57
2022/06/13 00:53:09;;;;;;;10.20;6.10;;;;;;;;;;2082103;28;20159;-57
2022/06/13 00:54:10;;;;;;;8.48;5.13;;;;;;;;;;2079105;28;20206;-53
2022/06/13 00:55:13;;;;;;;7.95;5.57;;;;;;;;;;2082334;28;20182;-57
2022/06/13 00:56:15;;;;;;;10.65;4.88;;;;;;;;;;2083635;28;20184;-55
2022/06/13 00:57:17;;;;;;;11.07;5.82;;;;;;;;;;2082790;28;20622;-57
2022/06/13 00:58:18;;;;;;;8.35;5.68;;;;;;;;;;2081953;28;20184;-55
2022/06/13 00:59:21;;;;;;;10.23;5.70;;;;;;;;;;2084313;28;20199;-53
2022/06/13 01:00:21;;;;;;;12.02;5.93;;;;;;;;;;2082347;28;20251;-57
2022/06/13 01:01:22;;;;;;;10.45;6.28;;;;;;;;;;2082120;28;20252;-53
2022/06/13 01:02:24;;;;;;;8.63;5.38;;;;;;;;;;2084026;28;20271;-54
2022/06/13 01:03:25;;;;;;;9.85;6.10;;;;;;;;;;2082066;28;20184;-53
2022/06/13 01:04:25;;;;;;;9.45;5.55;;;;;;;;;;2082726;28;20231;-55
2022/06/13 01:05:28;;;;;;;7.70;5.47;;;;;;;;;;2081928;28;20183;-58
2022/06/13 01:06:32;;;;;;;6.60;5.20;;;;;;;;;;2081672;28;20172;-53
2022/06/13 01:07:32;;;;;;;8.27;5.50;;;;;;;;;;2073468;28;20576;-54
2022/06/13 01:08:35;;;;;;;10.10;5.93;;;;;;;;;;2081925;28;20169;-56
2022/06/13 01:11:16;;;;;;;11.30;6.13;;;;;;;;;;2083535;28;20169;-55
2022/06/13 01:12:17;;;;;;;7.32;5.70;;;;;;;;;;2081664;28;20276;-55
2022/06/13 01:13:17;;;;;;;7.90;5.47;;;;;;;;;;2082868;28;20192;-53
2022/06/13 01:14:20;;;;;;;9.52;5.13;;;;;;;;;;2081669;28;20270;-54
2022/06/13 01:15:30;;;;;;;8.32;5.25;;;;;;;;;;2082043;28;20184;-56
2022/06/13 01:16:36;;;;;;;9.13;5.85;;;;;;;;;;2081854;28;20191;-56
2022/06/13 01:17:44;;;;;;;7.50;5.35;;;;;;;;;;2081494;28;20274;-56
2022/06/13 01:18:50;;;;;;;10.23;5.55;;;;;;;;;;2083445;28;20173;-57
2022/06/13 01:19:51;;;;;;;9.13;5.57;;;;;;;;;;2080577;28;20216;-56
2022/06/13 01:21:11;;;;;;;9.80;6.43;;;;;;;;;;2081513;28;20191;-56
2022/06/13 01:22:30;;;;;;;11.65;5.70;;;;;;;;;;2082248;28;20188;-58
2022/06/13 01:23:37;;;;;;;9.93;5.68;;;;;;;;;;2082119;28;20183;-58
2022/06/13 01:25:13;;;;;;;7.43;5.80;;;;;;;;;;2081551;28;20270;-57
2022/06/13 01:26:31;;;;;;;9.02;5.82;;;;;;;;;;2050680;28;20190;-53
2022/06/13 01:27:32;;;;;;;10.10;6.32;;;;;;;;;;2049170;28;20249;-58
2022/06/13 01:28:44;;;;;;;13.60;6.43;;;;;;;;;;2064661;28;20197;-57
2022/06/13 01:29:54;;;;;;;12.20;6.25;;;;;;;;;;2083315;28;20236;-53
2022/06/13 01:31:06;;;;;;;7.55;5.90;;;;;;;;;;2082335;28;20164;-56
2022/06/13 01:32:06;;;;;;;9.27;5.88;;;;;;;;;;2082582;28;20191;-54
2022/06/13 01:33:09;;;;;;;8.00;5.88;;;;;;;;;;2082738;28;20172;-57
2022/06/13 01:34:10;;;;;;;8.80;5.25;;;;;;;;;;2081762;28;20211;-55
2022/06/13 01:35:10;;;;;;;8.48;5.45;;;;;;;;;;2081914;28;20177;-57
2022/06/13 01:36:16;;;;;;;10.05;6.13;;;;;;;;;;2077673;28;20181;-57
2022/06/13 01:37:35;;;;;;;6.78;6.10;;;;;;;;;;2080440;28;20196;-54
2022/06/13 01:38:54;;;;;;;15.30;5.53;;;;;;;;;;2081955;28;20192;-59
2022/06/13 01:40:00;;;;;;;7.60;5.65;;;;;;;;;;2081962;28;20179;-56
2022/06/13 01:41:10;;;;;;;7.18;5.80;;;;;;;;;;2082753;28;20263;-54
2022/06/13 01:42:33;;;;;;;11.75;6.28;;;;;;;;;;2082442;28;20195;-56
2022/06/13 01:43:33;;;;;;;12.38;5.72;;;;;;;;;;2071833;28;20192;-56
2022/06/13 01:44:40;;;;;;;6.95;5.57;;;;;;;;;;2081061;28;20192;-56
2022/06/13 01:45:49;;;;;;;7.88;5.32;;;;;;;;;;2082494;28;20171;-58
2022/06/13 01:46:52;;;;;;;6.32;5.70;;;;;;;;;;2081450;28;20248;-54
2022/06/13 01:48:01;;;;;;;8.45;5.95;;;;;;;;;;2082021;28;20179;-58
2022/06/13 01:49:21;;;;;;;13.20;5.72;;;;;;;;;;2082466;28;20184;-56
2022/06/13 01:50:23;;;;;;;10.00;5.80;;;;;;;;;;2080730;28;20211;-55
2022/06/13 01:51:47;;;;;;;6.28;5.05;;;;;;;;;;2082459;28;20164;-56
2022/06/13 01:52:53;;;;;;;9.20;6.07;;;;;;;;;;2082064;28;20169;-56
2022/06/13 01:53:58;;;;;;;6.20;5.10;;;;;;;;;;2081995;28;20165;-54
2022/06/13 01:55:14;;;;;;;12.10;5.97;;;;;;;;;;2081822;28;20172;-56
2022/06/13 01:56:16;;;;;;;11.77;6.00;;;;;;;;;;2082190;28;20176;-54
2022/06/13 01:57:19;;;;;;;7.28;5.45;;;;;;;;;;2081622;28;20705;-55
2022/06/13 01:58:24;;;;;;;10.82;5.88;;;;;;;;;;2081749;28;20195;-59
2022/06/13 01:59:39;;;;;;;9.95;5.80;;;;;;;;;;2082070;28;20214;-56
2022/06/13 02:00:40;;;;;;;15.70;5.78;;;;;;;;;;2081541;28;20176;-57
2022/06/13 02:01:47;;;;;;;16.35;5.82;;;;;;;;;;2073176;28;20190;-55
2022/06/13 02:02:49;;;;;;;6.57;5.40;;;;;;;;;;2081635;28;20180;-57
2022/06/13 02:04:12;;;;;;;8.75;5.78;;;;;;;;;;2081854;28;20190;-56
2022/06/13 02:05:19;;;;;;;12.25;5.47;;;;;;;;;;2071360;28;20191;-56
2022/06/13 02:06:22;;;;;;;8.75;6.15;;;;;;;;;;2082356;28;20250;-55
2022/06/13 02:07:25;;;;;;;12.20;5.85;;;;;;;;;;2081537;28;20188;-56
2022/06/13 02:08:28;;;;;;;11.20;6.28;;;;;;;;;;2081680;28;20641;-58
2022/06/13 02:09:31;;;;;;;10.43;6.65;;;;;;;;;;2079696;28;20199;-57
2022/06/13 02:10:34;;;;;;;10.20;6.40;;;;;;;;;;2082064;28;20175;-56
2022/06/13 02:11:39;;;;;;;9.10;6.78;;;;;;;;;;2081537;28;20172;-57
2022/06/13 02:12:41;;;;;;;9.38;6.05;;;;;;;;;;2081519;28;20173;-57
2022/06/13 02:13:47;;;;;;;9.40;6.97;;;;;;;;;;2073250;28;20665;-57
2022/06/13 02:14:50;;;;;;;9.52;6.55;;;;;;;;;;2080421;28;20168;-52
2022/06/13 02:15:53;;;;;;;9.70;5.95;;;;;;;;;;2081529;28;20261;-56
2022/06/13 02:16:57;;;;;;;12.18;6.55;;;;;;;;;;2082202;28;20679;-56
2022/06/13 02:17:59;;;;;;;9.65;5.85;;;;;;;;;;2082075;28;20552;-55
2022/06/13 02:19:03;;;;;;;12.25;6.20;;;;;;;;;;2082269;28;20160;-57
2022/06/13 02:20:08;;;;;;;9.73;6.07;;;;;;;;;;2082081;28;20172;-55
2022/06/13 02:21:10;;;;;;;8.98;5.78;;;;;;;;;;2082291;28;20597;-56
2022/06/13 02:22:16;;;;;;;8.63;5.68;;;;;;;;;;2082109;28;20632;-57
2022/06/13 02:23:19;;;;;;;12.55;6.22;;;;;;;;;;2082052;28;20165;-55
2022/06/13 02:24:23;;;;;;;9.50;6.15;;;;;;;;;;2080689;28;20195;-58
2022/06/13 02:25:28;;;;;;;7.05;5.78;;;;;;;;;;2081332;28;20172;-55
2022/06/13 02:26:31;;;;;;;11.50;6.03;;;;;;;;;;2081099;28;20272;-56
2022/06/13 02:27:34;;;;;;;9.40;5.60;;;;;;;;;;2081442;28;20280;-53
2022/06/13 02:28:40;;;;;;;9.82;5.18;;;;;;;;;;2090788;22;20168;-59
2022/06/13 02:29:44;;;;;;;12.65;5.85;;;;;;;;;;2079767;28;20176;-51
2022/06/13 02:30:48;;;;;;;12.13;5.40;;;;;;;;;;2074239;28;20179;-57
2022/06/13 02:31:56;;;;;;;11.23;6.43;;;;;;;;;;2075202;28;20741;-57
2022/06/13 02:33:10;;;;;;;8.70;5.32;;;;;;;;;;2080977;28;20172;-56
2022/06/13 02:34:16;;;;;;;8.98;5.75;;;;;;;;;;2079868;28;20182;-59
2022/06/13 02:35:21;;;;;;;13.52;5.72;;;;;;;;;;2081118;28;20171;-59
2022/06/13 02:36:32;;;;;;;7.47;5.40;;;;;;;;;;2081411;28;20212;-56
2022/06/13 02:37:42;;;;;;;10.02;5.63;;;;;;;;;;2080791;28;20169;-53
2022/06/13 02:38:57;;;;;;;12.65;5.30;;;;;;;;;;2081525;28;20204;-56
2022/06/13 02:40:04;;;;;;;8.82;4.95;;;;;;;;;;2080015;28;20164;-56
2022/06/13 02:41:06;;;;;;;9.95;5.43;;;;;;;;;;2080606;28;20179;-56
2022/06/13 02:42:12;;;;;;;7.72;5.32;;;;;;;;;;2073494;28;20192;-57
2022/06/13 02:43:18;;;;;;;9.90;5.18;;;;;;;;;;2073487;28;20169;-55
2022/06/13 02:44:30;;;;;;;7.75;5.28;;;;;;;;;;2072400;28;20200;-55
2022/06/13 02:45:33;;;;;;;9.65;5.65;;;;;;;;;;2065416;28;20158;-55
2022/06/13 02:46:36;;;;;;;7.97;5.55;;;;;;;;;;2072299;28;20279;-57
2022/06/13 02:47:49;;;;;;;7.88;4.85;;;;;;;;;;2065466;28;20162;-55
2022/06/13 02:49:02;;;;;;;8.07;5.53;;;;;;;;;;2073452;28;20680;-55
2022/06/13 02:50:11;;;;;;;10.45;5.10;;;;;;;;;;2076788;28;20186;-57
2022/06/13 02:51:19;;;;;;;5.90;5.20;;;;;;;;;;2081185;28;20155;-55
2022/06/13 02:52:35;;;;;;;12.20;6.40;;;;;;;;;;2081591;28;20180;-54
2022/06/13 02:53:35;;;;;;;12.13;6.20;;;;;;;;;;2073496;28;20164;-54
2022/06/13 02:54:35;;;;;;;9.05;6.32;;;;;;;;;;2072314;28;20177;-50
2022/06/13 02:55:43;;;;;;;13.60;6.65;;;;;;;;;;2073422;28;20203;-53
2022/06/13 02:58:20;;;;;;;13.40;7.35;;;;;;;;;;2073933;28;20172;-56
2022/06/13 02:59:24;;;;;;;15.20;7.68;;;;;;;;;;2073135;28;20188;-53
2022/06/13 03:00:32;;;;;;;13.13;7.43;;;;;;;;;;2072942;28;20180;-57
2022/06/13 03:01:43;;;;;;;11.02;6.32;;;;;;;;;;2072706;28;20161;-51
2022/06/13 03:02:57;;;;;;;9.50;5.90;;;;;;;;;;2073517;28;20181;-52
2022/06/13 03:04:00;;;;;;;12.32;6.10;;;;;;;;;;2067804;28;20203;-51
2022/06/13 03:05:07;;;;;;;11.57;6.80;;;;;;;;;;2072465;28;20558;-55
2022/06/13 03:06:30;;;;;;;13.20;7.00;;;;;;;;;;2072992;28;20642;-57
2022/06/13 03:07:33;;;;;;;12.93;6.85;;;;;;;;;;2065215;28;20183;-54
2022/06/13 03:08:34;;;;;;;14.50;7.53;;;;;;;;;;2065025;28;20232;-57
2022/06/13 03:09:37;;;;;;;12.40;7.57;;;;;;;;;;2065158;28;20967;-55
2022/06/13 03:10:42;;;;;;;11.38;8.27;;;;;;;;;;2070112;28;20232;-55
2022/06/13 03:12:08;;;;;;;11.70;7.47;;;;;;;;;;2063901;28;20181;-54
2022/06/13 03:13:18;;;;;;;11.82;7.60;;;;;;;;;;2065163;28;20216;-53
2022/06/13 03:14:24;;;;;;;10.35;7.38;;;;;;;;;;2071769;28;20239;-54
2022/06/13 03:15:51;;;;;;;14.88;8.32;;;;;;;;;;2072650;28;20184;-56
2022/06/13 03:16:58;;;;;;;14.38;8.60;;;;;;;;;;2071147;28;20205;-58
2022/06/13 03:18:04;;;;;;;14.70;9.00;;;;;;;;;;2073171;28;20165;-58
2022/06/13 03:19:12;;;;;;;15.43;8.75;;;;;;;;;;2073204;28;20192;-54
2022/06/13 03:20:15;;;;;;;14.73;8.95;;;;;;;;;;2064325;28;20227;-53
2022/06/13 03:21:20;;;;;;;16.10;9.93;;;;;;;;;;2057208;28;20261;-58
2022/06/13 03:22:32;;;;;;;15.60;9.30;;;;;;;;;;2064968;28;20182;-55
2022/06/13 03:23:43;;;;;;;15.07;9.38;;;;;;;;;;2072727;28;20627;-51
2022/06/13 03:24:44;;;;;;;12.40;9.05;;;;;;;;;;2071433;28;20279;-54
2022/06/13 03:25:44;;;;;;;10.50;8.88;;;;;;;;;;2072855;28;20199;-57
2022/06/13 03:26:49;;;;;;;14.07;9.65;;;;;;;;;;2073269;28;20191;-55
2022/06/13 03:27:53;;;;;;;13.18;9.18;;;;;;;;;;2064433;28;20427;-54
2022/06/13 03:29:03;;;;;;;16.95;8.80;;;;;;;;;;2064729;28;20244;-53
2022/06/13 03:30:09;;;;;;;15.30;8.98;;;;;;;;;;2072784;28;20207;-54
2022/06/13 03:31:29;;;;;;;12.88;9.43;;;;;;;;;;2073187;28;20188;-50
2022/06/13 03:32:32;;;;;;;18.13;9.27;;;;;;;;;;2073098;28;20177;-52
2022/06/13 03:33:42;;;;;;;16.48;9.15;;;;;;;;;;2072678;28;20165;-55
2022/06/13 03:34:44;;;;;;;17.13;8.68;;;;;;;;;;2069621;28;20223;-55
2022/06/13 03:35:46;;;;;;;19.13;9.75;;;;;;;;;;2065603;28;20162;-61
2022/06/13 03:36:50;;;;;;;16.98;9.57;;;;;;;;;;2071240;28;20207;-57
2022/06/13 03:37:51;;;;;;;11.98;9.82;;;;;;;;;;2071644;28;20239;-55
2022/06/13 03:39:12;;;;;;;17.20;9.63;;;;;;;;;;2064311;28;20181;-55
2022/06/13 03:40:23;;;;;;;13.52;8.98;;;;;;;;;;2058252;28;20169;-52
2022/06/13 03:41:26;;;;;;;15.77;9.20;;;;;;;;;;2056003;28;20175;-57
2022/06/13 03:42:28;;;;;;;13.90;9.02;;;;;;;;;;2048832;28;20179;-56
2022/06/13 03:43:44;;;;;;;21.05;9.82;;;;;;;;;;2064636;28;20181;-55
2022/06/13 03:44:44;;;;;;;16.33;8.63;;;;;;;;;;2065122;28;20224;-55
2022/06/13 03:45:51;;;;;;;14.07;8.27;;;;;;;;;;2072429;28;20177;-55
2022/06/13 03:46:54;;;;;;;17.98;9.10;;;;;;;;;;2072218;28;20271;-56
2022/06/13 03:48:02;;;;;;;16.17;9.02;;;;;;;;;;2072548;28;20168;-56
2022/06/13 03:49:23;;;;;;;15.02;9.00;;;;;;;;;;2072479;28;20208;-54
2022/06/13 03:50:25;;;;;;;13.50;8.65;;;;;;;;;;2078648;28;20176;-54
2022/06/13 03:51:30;;;;;;;13.15;8.57;;;;;;;;;;2056868;28;20198;-55
2022/06/13 03:52:32;;;;;;;16.00;9.15;;;;;;;;;;2064854;28;20184;-54
2022/06/13 03:53:39;;;;;;;13.10;8.48;;;;;;;;;;2072459;28;20197;-52
2022/06/13 03:54:43;;;;;;;9.80;8.20;;;;;;;;;;2071524;28;20954;-54
2022/06/13 03:55:47;;;;;;;12.32;8.18;;;;;;;;;;2073256;28;20516;-55
2022/06/13 03:56:56;;;;;;;13.20;8.48;;;;;;;;;;2072984;28;20256;-53
2022/06/13 03:58:02;;;;;;;11.18;7.47;;;;;;;;;;2072290;28;20223;-55
2022/06/13 03:59:08;;;;;;;10.70;7.82;;;;;;;;;;2072470;28;20196;-56
2022/06/13 04:00:17;;;;;;;13.10;8.07;;;;;;;;;;2072474;28;20610;-56
2022/06/13 04:01:20;;;;;;;13.50;7.38;;;;;;;;;;2071079;28;20246;-53
2022/06/13 04:02:24;;;;;;;10.52;7.43;;;;;;;;;;2073213;28;20169;-56
2022/06/13 04:03:26;;;;;;;11.32;7.13;;;;;;;;;;2072963;28;20184;-56
2022/06/13 04:04:30;;;;;;;7.95;6.90;;;;;;;;;;2072310;28;20204;-56
2022/06/13 04:05:35;;;;;;;13.73;7.35;;;;;;;;;;2064951;28;20200;-55
2022/06/13 04:06:38;;;;;;;10.52;7.30;;;;;;;;;;2065078;28;20180;-53
2022/06/13 04:07:38;;;;;;;11.02;7.38;;;;;;;;;;2064898;28;20253;-52
2022/06/13 04:08:38;;;;;;;11.50;7.10;;;;;;;;;;2064869;28;20204;-54
2022/06/13 04:09:44;;;;;;;16.73;7.47;;;;;;;;;;2066297;28;20659;-59
2022/06/13 04:10:50;;;;;;;13.65;8.05;;;;;;;;;;2067401;28;20157;-55
2022/06/13 04:11:56;;;;;;;14.90;7.93;;;;;;;;;;2064872;28;20181;-57
2022/06/13 04:13:05;;;;;;;8.88;7.57;;;;;;;;;;2073039;28;20193;-52
2022/06/13 04:14:06;;;;;;;12.00;8.00;;;;;;;;;;2072102;28;20157;-53
2022/06/13 04:15:25;;;;;;;12.57;7.50;;;;;;;;;;2072934;28;20199;-58
2022/06/13 04:16:34;;;;;;;12.13;7.78;;;;;;;;;;2073132;28;20755;-58
2022/06/13 04:17:57;;;;;;;13.73;8.07;;;;;;;;;;2072156;28;20161;-53
2022/06/13 04:19:07;;;;;;;12.85;8.40;;;;;;;;;;2064728;28;20591;-56
2022/06/13 04:20:13;;;;;;;9.68;7.68;;;;;;;;;;2073011;28;20173;-53
2022/06/13 04:21:32;;;;;;;9.73;7.28;;;;;;;;;;2072780;28;20157;-50
2022/06/13 04:22:38;;;;;;;10.25;7.05;;;;;;;;;;2072769;28;20177;-54
2022/06/13 04:23:44;;;;;;;10.75;6.85;;;;;;;;;;2073108;28;20170;-51
2022/06/13 04:24:46;;;;;;;10.60;7.28;;;;;;;;;;2072277;28;20214;-53
2022/06/13 04:25:53;;;;;;;11.68;7.55;;;;;;;;;;2073129;28;20176;-54
2022/06/13 04:26:58;;;;;;;13.85;8.10;;;;;;;;;;2071162;28;20196;-55
2022/06/13 04:28:10;;;;;;;9.20;7.55;;;;;;;;;;2070445;28;20226;-58
2022/06/13 04:29:13;;;;;;;11.38;7.90;;;;;;;;;;2072876;28;20559;-56
2022/06/13 04:30:15;;;;;;;16.92;8.15;;;;;;;;;;2072882;28;20181;-55
2022/06/13 04:31:18;;;;;;;11.15;6.78;;;;;;;;;;2073109;28;20165;-54
2022/06/13 04:32:21;;;;;;;9.52;7.60;;;;;;;;;;2072954;28;20280;-54
2022/06/13 04:33:25;;;;;;;11.70;8.45;;;;;;;;;;2072809;28;20169;-55
2022/06/13 04:34:29;;;;;;;10.80;7.20;;;;;;;;;;2070278;28;20185;-61
2022/06/13 04:35:31;;;;;;;10.98;7.47;;;;;;;;;;2072315;28;20165;-52
2022/06/13 04:36:32;;;;;;;9.30;6.97;;;;;;;;;;2073072;28;20165;-54
2022/06/13 04:37:32;;;;;;;12.82;7.68;;;;;;;;;;2066417;28;20210;-54
2022/06/13 04:38:33;;;;;;;15.75;7.45;;;;;;;;;;2064356;28;20216;-56
2022/06/13 04:39:35;;;;;;;13.48;7.88;;;;;;;;;;2064308;28;20248;-53
2022/06/13 04:40:38;;;;;;;13.80;7.90;;;;;;;;;;2064976;28;20185;-53
2022/06/13 04:41:39;;;;;;;10.43;7.13;;;;;;;;;;2064641;28;20182;-54
2022/06/13 04:42:41;;;;;;;13.00;6.70;;;;;;;;;;2064876;28;20174;-56
2022/06/13 04:43:44;;;;;;;12.15;6.68;;;;;;;;;;2064740;28;20170;-55
2022/06/13 04:44:45;;;;;;;12.50;7.32;;;;;;;;;;2063892;28;20555;-57
2022/06/13 04:45:51;;;;;;;9.50;6.47;;;;;;;;;;2070432;28;20200;-55
2022/06/13 04:46:52;;;;;;;10.30;6.15;;;;;;;;;;2072807;28;20172;-57
2022/06/13 04:47:53;;;;;;;10.55;6.85;;;;;;;;;;2072615;28;20192;-53
2022/06/13 04:48:55;;;;;;;10.07;6.82;;;;;;;;;;2072814;28;20193;-54
2022/06/13 04:49:57;;;;;;;11.07;6.88;;;;;;;;;;2074801;28;20204;-54
2022/06/13 04:51:00;;;;;;;10.30;6.95;;;;;;;;;;2074401;28;20172;-59
2022/06/13 04:52:03;;;;;;;10.27;7.18;;;;;;;;;;2074034;28;20165;-53
2022/06/13 04:53:05;;;;;;;11.30;6.55;;;;;;;;;;2074665;28;20616;-57
2022/06/13 04:54:11;;;;;;;7.15;5.93;;;;;;;;;;2066284;28;20166;-56
2022/06/13 04:55:21;;;;;;;7.35;5.45;;;;;;;;;;2074593;28;20162;-55
2022/06/13 04:56:22;;;;;;;10.30;6.80;;;;;;;;;;2074560;28;20161;-54
2022/06/13 04:57:23;;;;;;;8.82;5.85;;;;;;;;;;2074337;28;20216;-52
2022/06/13 04:58:37;;;;;;;6.15;5.55;;;;;;;;;;2074355;28;20556;-57
2022/06/13 04:59:39;;;;;;;8.43;6.00;;;;;;;;;;2074976;28;20224;-56
2022/06/13 05:00:39;;;;;;;7.63;5.85;;;;;;;;;;2074945;28;20169;-56
2022/06/13 05:01:49;;;;;;;8.77;5.65;;;;;;;;;;2074707;28;20176;-57
2022/06/13 05:02:55;;;;;;;9.20;5.22;;;;;;;;;;2074870;28;20172;-55
2022/06/13 05:03:56;;;;;;;7.78;5.95;;;;;;;;;;2074171;28;20161;-53
2022/06/13 05:04:57;;;;;;;9.70;5.40;;;;;;;;;;2074180;28;20165;-52
2022/06/13 05:06:03;;;;;;;7.18;5.72;;;;;;;;;;2074163;28;20710;-65
2022/06/13 05:07:09;;;;;;;10.55;5.30;;;;;;;;;;2074162;28;20188;-60
2022/06/13 05:08:11;;;;;;;8.43;5.63;;;;;;;;;;2074275;28;20355;-51
2022/06/13 05:09:11;;;;;;;7.85;6.00;;;;;;;;;;2074317;28;20751;-52
2022/06/13 05:10:14;;;;;;;9.45;5.57;;;;;;;;;;2073416;28;20308;-50
2022/06/13 05:11:22;;;;;;;9.93;5.65;;;;;;;;;;2066499;28;20174;-55
2022/06/13 05:12:30;;;;;;;10.30;4.93;;;;;;;;;;2073414;28;20184;-51
2022/06/13 05:13:30;;;;;;;7.53;5.20;;;;;;;;;;2074793;28;20180;-56
2022/06/13 05:14:31;;;;;;;6.85;5.13;;;;;;;;;;2074537;28;20664;-54
2022/06/13 05:15:32;;;;;;;8.55;6.15;;;;;;;;;;2074294;28;20707;-54
2022/06/13 05:16:39;;;;;;;6.40;5.40;;;;;;;;;;2066295;28;20180;-53
2022/06/13 05:17:58;;;;;;;8.02;5.30;;;;;;;;;;2066430;28;20561;-53
2022/06/13 05:19:07;;;;;;;7.38;5.45;;;;;;;;;;2066217;28;20280;-50
2022/06/13 05:20:10;;;;;;;6.20;4.93;;;;;;;;;;2066871;28;20162;-51
2022/06/13 05:21:19;;;;;;;7.07;5.50;;;;;;;;;;2066499;28;20188;-54
2022/06/13 05:22:30;;;;;;;9.80;5.85;;;;;;;;;;2066429;28;20158;-56
2022/06/13 05:23:35;;;;;;;10.00;5.60;;;;;;;;;;2066352;28;20260;-51
2022/06/13 05:24:48;;;;;;;6.65;6.03;;;;;;;;;;2065393;28;20182;-51
2022/06/13 05:25:49;;;;;;;9.98;6.13;;;;;;;;;;2066246;28;20154;-50
2022/06/13 05:26:50;;;;;;;6.07;5.45;;;;;;;;;;2065385;28;20248;-50
2022/06/13 05:27:50;;;;;;;9.50;4.88;;;;;;;;;;2066512;28;20558;-48
2022/06/13 05:28:51;;;;;;;8.82;4.93;;;;;;;;;;2074142;28;20244;-49
2022/06/13 05:29:51;;;;;;;8.20;5.93;;;;;;;;;;2074266;28;20720;-59
2022/06/13 05:30:52;;;;;;;8.95;5.78;;;;;;;;;;2074303;28;20248;-49
2022/06/13 05:31:53;;;;;;;7.95;5.80;;;;;;;;;;2070365;28;20196;-48
2022/06/13 05:32:54;;;;;;;9.40;5.38;;;;;;;;;;2073345;28;20240;-54
2022/06/13 05:33:55;;;;;;;8.32;5.25;;;;;;;;;;2071327;28;20165;-50
2022/06/13 05:34:56;;;;;;;9.65;5.78;;;;;;;;;;2066157;28;20205;-57
2022/06/13 05:35:57;;;;;;;9.00;5.65;;;;;;;;;;2065609;28;20166;-54
2022/06/13 05:36:57;;;;;;;7.30;5.15;;;;;;;;;;2070607;28;20183;-52
2022/06/13 05:38:00;;;;;;;7.85;5.18;;;;;;;;;;2069219;28;20172;-51
2022/06/13 05:39:04;;;;;;;11.55;5.13;;;;;;;;;;2073492;28;20248;-56
2022/06/13 05:40:04;;;;;;;5.63;5.10;;;;;;;;;;2073622;28;20188;-55
2022/06/13 05:41:05;;;;;;;7.90;4.90;;;;;;;;;;2073932;28;20169;-53
2022/06/13 05:42:05;;;;;;;6.40;5.10;;;;;;;;;;2074208;28;20161;-51
2022/06/13 05:43:07;;;;;;;10.90;5.10;;;;;;;;;;2074236;28;20165;-54
2022/06/13 05:44:08;;;;;;;8.70;5.43;;;;;;;;;;2072436;28;20180;-55
2022/06/13 05:45:13;;;;;;;8.57;5.88;;;;;;;;;;2074212;28;20226;-53
2022/06/13 05:46:18;;;;;;;6.28;4.90;;;;;;;;;;2073845;28;20687;-51
2022/06/13 05:47:20;;;;;;;6.03;4.95;;;;;;;;;;2073938;28;20181;-52
2022/06/13 05:48:21;;;;;;;7.40;5.45;;;;;;;;;;2073968;28;20191;-54
2022/06/13 05:49:21;;;;;;;6.35;5.60;;;;;;;;;;2073761;28;20176;-56
2022/06/13 05:50:24;;;;;;;5.90;5.30;;;;;;;;;;2078962;28;20266;-55
2022/06/13 05:51:24;;;;;;;7.10;5.30;;;;;;;;;;2069230;28;20231;-56
2022/06/13 05:52:25;;;;;;;6.70;4.75;;;;;;;;;;2069928;28;20277;-60
2022/06/13 05:53:25;;;;;;;8.68;5.20;;;;;;;;;;2069320;28;20167;-56
2022/06/13 05:54:26;;;;;;;7.72;6.05;;;;;;;;;;2069299;28;20184;-55
2022/06/13 05:55:26;;;;;;;7.70;4.70;;;;;;;;;;2070729;28;20217;-51
2022/06/13 05:56:27;;;;;;;7.60;5.32;;;;;;;;;;2068701;28;20204;-52
2022/06/13 05:57:28;;;;;;;5.95;4.68;;;;;;;;;;2070311;28;20182;-58
2022/06/13 05:58:28;;;;;;;7.18;5.00;;;;;;;;;;2068008;28;20169;-54
2022/06/13 05:59:29;;;;;;;8.23;5.15;;;;;;;;;;2070921;28;20201;-53
2022/06/13 06:00:33;;;;;;;9.70;5.65;;;;;;;;;;2071312;28;20204;-53
2022/06/13 06:01:35;;;;;;;6.38;5.30;;;;;;;;;;2067619;28;20273;-55
2022/06/13 06:02:36;;;;;;;7.93;5.55;;;;;;;;;;2069364;28;20173;-59
2022/06/13 06:03:36;;;;;;;6.25;5.13;;;;;;;;;;2068712;28;20294;-57
2022/06/13 06:04:37;;;;;;;6.95;4.70;;;;;;;;;;2060324;28;20325;-53
2022/06/13 06:05:38;;;;;;;8.60;5.65;;;;;;;;;;2060678;28;20205;-51
2022/06/13 06:06:38;;;;;;;8.65;5.32;;;;;;;;;;2070729;28;20185;-53
2022/06/13 06:07:39;;;;;;;6.65;5.07;;;;;;;;;;2072969;28;20208;-57
2022/06/13 06:08:40;;;;;;;9.40;5.93;;;;;;;;;;2072799;28;20267;-55
2022/06/13 06:09:40;;;;;;;6.32;4.72;;;;;;;;;;2071313;28;20211;-58
2022/06/13 06:10:41;;;;;;;7.47;5.35;;;;;;;;;;2070771;28;20173;-54
2022/06/13 06:11:41;;;;;;;7.95;5.10;;;;;;;;;;2070837;28;20186;-53
2022/06/13 06:12:42;;;;;;;6.43;5.53;;;;;;;;;;2071787;28;20199;-54
2022/06/13 06:13:42;;;;;;;8.27;5.43;;;;;;;;;;2081858;28;20176;-56
2022/06/13 06:14:43;;;;;;;6.90;4.97;;;;;;;;;;2081376;28;20172;-53
2022/06/13 06:15:44;;;;;;;7.53;5.07;;;;;;;;;;2082132;28;20177;-55
2022/06/13 06:16:44;;;;;;;6.78;4.78;;;;;;;;;;2082029;28;20551;-53
2022/06/13 06:17:44;;;;;;;12.88;5.45;;;;;;;;;;2082135;28;20268;-53
2022/06/13 06:18:45;;;;;;;6.57;4.80;;;;;;;;;;2081914;28;20222;-54
2022/06/13 06:19:45;;;;;;;7.72;4.93;;;;;;;;;;2081249;28;20230;-50
2022/06/13 06:20:45;;;;;;;7.13;5.13;;;;;;;;;;2081530;28;20172;-54
2022/06/13 06:21:46;;;;;;;8.57;5.25;;;;;;;;;;2081850;28;20203;-51
2022/06/13 06:22:46;;;;;;;8.65;5.15;;;;;;;;;;2081971;28;20175;-51
2022/06/13 06:23:47;;;;;;;7.85;4.68;;;;;;;;;;2082036;28;20592;-59
2022/06/13 06:24:47;;;;;;;9.23;5.32;;;;;;;;;;2081004;28;20634;-51
2022/06/13 06:25:48;;;;;;;15.18;8.57;;;;;;;;;;2082210;28;20206;-51
2022/06/13 06:26:48;;;;;;;30.02;22.25;;;;;;;;;;2082019;28;20799;-51
2022/06/13 06:27:49;;;;;;;23.38;14.60;;;;;;;;;;2082124;28;20164;-54